createdAt,value
2022-10-23T00:03:57.143Z,99.90
2022-10-23T00:09:00.569Z,99.90
2022-10-23T00:14:06.120Z,99.90
2022-10-23T00:19:08.892Z,99.90
2022-10-23T00:24:11.642Z,99.90
2022-10-23T00:29:14.543Z,99.90
2022-10-23T00:34:17.368Z,99.90
2022-10-23T00:39:20.087Z,99.90
2022-10-23T00:44:22.713Z,99.90
2022-10-23T00:49:26.318Z,99.90
2022-10-23T00:54:34.545Z,99.90
2022-10-23T00:59:37.538Z,99.90
2022-10-23T01:04:40.408Z,99.90
2022-10-23T01:10:03.045Z,99.90
2022-10-23T01:15:16.049Z,99.90
2022-10-23T01:20:18.702Z,99.90
2022-10-23T01:25:54.284Z,99.90
2022-10-23T01:31:00.241Z,99.90
2022-10-23T01:36:14.395Z,99.90
2022-10-23T01:41:24.228Z,99.90
2022-10-23T01:46:28.647Z,99.90
2022-10-23T01:51:33.319Z,99.90
2022-10-23T01:56:46.372Z,99.90
2022-10-23T02:01:53.656Z,99.90
2022-10-23T02:06:57.093Z,99.90
2022-10-23T02:12:08.344Z,99.90
2022-10-23T02:17:49.990Z,99.90
2022-10-23T02:23:15.867Z,99.90
2022-10-23T02:28:26.564Z,99.90
2022-10-23T02:33:34.688Z,99.90
2022-10-23T02:38:43.029Z,99.90
2022-10-23T02:44:09.244Z,99.90
2022-10-23T02:49:26.028Z,99.90
2022-10-23T02:55:07.230Z,99.90
2022-10-23T03:00:23.234Z,99.90
2022-10-23T03:05:36.554Z,99.90
2022-10-23T03:10:39.932Z,99.90
2022-10-23T03:15:43.908Z,99.90
2022-10-23T03:20:49.709Z,99.90
2022-10-23T03:25:53.528Z,99.90
2022-10-23T03:31:19.323Z,99.90
2022-10-23T03:36:25.878Z,99.90
2022-10-23T03:41:29.249Z,99.90
2022-10-23T03:46:32.175Z,99.90
2022-10-23T03:51:35.465Z,99.90
2022-10-23T03:56:39.714Z,99.90
2022-10-23T04:01:44.545Z,99.90
2022-10-23T04:06:47.223Z,99.90
2022-10-23T04:11:49.827Z,99.90
2022-10-23T04:16:52.736Z,99.90
2022-10-23T04:21:57.404Z,99.90
2022-10-23T04:27:00.196Z,99.90
2022-10-23T04:32:06.978Z,99.90
2022-10-23T04:37:09.639Z,99.90
2022-10-23T04:42:12.303Z,99.90
2022-10-23T04:47:15.696Z,99.90
2022-10-23T04:52:31.088Z,99.90
2022-10-23T04:57:59.979Z,99.90
2022-10-23T05:03:02.731Z,99.90
2022-10-23T05:08:17.077Z,99.90
2022-10-23T05:13:43.728Z,99.90
2022-10-23T05:18:48.370Z,99.90
2022-10-23T05:23:51.644Z,99.90
2022-10-23T05:28:54.416Z,99.90
2022-10-23T05:33:58.033Z,99.90
2022-10-23T05:39:00.931Z,99.90
2022-10-23T05:44:03.750Z,99.90
2022-10-23T05:49:29.713Z,99.90
2022-10-23T05:54:47.648Z,99.90
2022-10-23T06:00:18.270Z,99.90
2022-10-23T06:05:30.623Z,99.90
2022-10-23T06:10:55.149Z,99.90
2022-10-23T06:15:58.269Z,99.90
2022-10-23T06:21:02.900Z,99.90
2022-10-23T06:26:08.267Z,99.90
2022-10-23T06:31:27.008Z,99.90
2022-10-23T06:36:32.428Z,99.90
2022-10-23T06:42:07.851Z,99.90
2022-10-23T06:47:36.457Z,99.90
2022-10-23T06:52:59.000Z,99.90
2022-10-23T06:58:03.149Z,99.90
2022-10-23T07:03:08.804Z,99.90
2022-10-23T07:08:11.895Z,99.90
2022-10-23T07:13:18.137Z,99.90
2022-10-23T07:18:48.620Z,99.90
2022-10-23T07:24:04.098Z,99.90
2022-10-23T07:29:09.530Z,99.90
2022-10-23T07:34:12.500Z,99.90
2022-10-23T07:39:16.602Z,99.90
2022-10-23T07:44:27.764Z,99.90
2022-10-23T07:49:31.681Z,99.90
2022-10-23T07:54:34.893Z,99.90
2022-10-23T07:59:43.315Z,99.90
2022-10-23T08:04:51.814Z,99.90
2022-10-23T08:10:16.181Z,99.90
2022-10-23T08:15:20.392Z,99.90
2022-10-23T08:20:29.610Z,99.90
2022-10-23T08:30:41.215Z,99.90
2022-10-23T08:35:44.254Z,99.90
2022-10-23T08:40:49.574Z,99.90
2022-10-23T08:46:09.417Z,99.90
2022-10-23T08:51:40.173Z,99.90
2022-10-23T08:56:47.559Z,99.90
2022-10-23T09:02:10.728Z,99.90
2022-10-23T09:07:13.624Z,99.90
2022-10-23T09:12:20.858Z,99.90
2022-10-23T09:22:12.301Z,99.90
2022-10-23T09:27:18.393Z,99.90
2022-10-23T09:32:32.797Z,97.30
2022-10-23T09:37:37.770Z,95.60
2022-10-23T09:43:01.748Z,90.90
2022-10-23T09:48:06.231Z,76.20
2022-10-23T09:53:18.412Z,63.40
2022-10-23T09:58:25.719Z,68.40
2022-10-23T10:03:28.839Z,65.30
2022-10-23T10:08:51.937Z,53.40
2022-10-23T10:14:14.897Z,58.30
2022-10-23T10:19:39.509Z,63.90
2022-10-23T10:25:08.960Z,67.30
2022-10-23T10:30:19.544Z,59.80
2022-10-23T10:35:43.279Z,64.80
2022-10-23T10:41:14.640Z,58.30
2022-10-23T10:46:26.382Z,59.40
2022-10-23T10:51:50.284Z,58.80
2022-10-23T10:56:53.045Z,59.00
2022-10-23T11:02:20.757Z,61.00
2022-10-23T11:07:29.147Z,61.40
2022-10-23T11:12:32.958Z,57.90
2022-10-23T11:17:41.271Z,59.30
2022-10-23T11:22:50.488Z,57.20
2022-10-23T11:28:10.520Z,55.80
2022-10-23T11:33:44.625Z,59.20
2022-10-23T11:38:51.051Z,55.60
2022-10-23T11:44:07.606Z,55.20
2022-10-23T11:49:21.679Z,55.80
2022-10-23T11:54:27.473Z,58.90
2022-10-23T11:59:35.719Z,62.20
2022-10-23T12:04:48.259Z,61.90
2022-10-23T12:10:00.452Z,63.60
2022-10-23T12:15:11.882Z,71.60
2022-10-23T12:20:14.751Z,78.70
2022-10-23T12:25:50.109Z,73.80
2022-10-23T12:31:23.349Z,79.60
2022-10-23T12:36:42.804Z,77.90
2022-10-23T12:41:45.592Z,78.40
2022-10-23T12:46:51.469Z,86.30
2022-10-23T12:52:06.223Z,88.00
2022-10-23T12:57:30.484Z,90.10
2022-10-23T13:02:33.453Z,85.70
2022-10-23T13:07:46.667Z,83.00
2022-10-23T13:13:00.919Z,82.80
2022-10-23T13:18:05.459Z,83.80
2022-10-23T13:23:08.408Z,81.50
2022-10-23T13:28:16.878Z,88.10
2022-10-23T13:33:26.390Z,83.90
2022-10-23T13:38:31.309Z,88.50
2022-10-23T13:43:34.844Z,90.50
2022-10-23T13:48:38.171Z,92.30
2022-10-23T13:53:41.050Z,97.60
2022-10-23T13:58:43.931Z,99.90
2022-10-23T14:03:47.828Z,99.90
2022-10-23T14:08:51.122Z,99.90
2022-10-23T14:13:53.989Z,99.90
2022-10-23T14:18:57.005Z,99.90
2022-10-23T14:23:59.997Z,99.90
2022-10-23T14:29:06.947Z,99.90
2022-10-23T14:34:13.806Z,99.90
2022-10-23T14:39:16.868Z,99.90
2022-10-23T14:44:19.813Z,99.90
2022-10-23T14:49:22.669Z,99.90
2022-10-23T14:54:25.680Z,99.90
2022-10-23T14:59:28.480Z,99.90
2022-10-23T15:04:31.230Z,99.90
2022-10-23T15:09:37.685Z,99.90
2022-10-23T15:14:40.721Z,99.90
2022-10-23T15:19:43.909Z,99.90
2022-10-23T15:24:48.182Z,99.90
2022-10-23T15:29:50.970Z,99.90
2022-10-23T15:34:55.076Z,99.90
2022-10-23T15:40:01.209Z,99.90
2022-10-23T15:45:05.831Z,99.90
2022-10-23T15:50:09.272Z,99.90
2022-10-23T15:55:12.642Z,99.90
2022-10-23T16:00:20.287Z,99.90
2022-10-23T16:05:23.339Z,99.90
2022-10-23T16:10:26.270Z,99.90
2022-10-23T16:15:29.283Z,99.90
2022-10-23T16:20:32.090Z,99.90
2022-10-23T16:25:38.866Z,99.90
2022-10-23T16:30:42.772Z,99.90
2022-10-23T16:35:45.620Z,99.90
2022-10-23T16:40:54.485Z,99.90
2022-10-23T16:46:26.553Z,99.90
2022-10-23T16:51:31.842Z,99.90
2022-10-23T16:56:34.652Z,99.90
2022-10-23T17:01:37.701Z,99.90
2022-10-23T17:06:41.403Z,99.90
2022-10-23T17:11:45.759Z,99.90
2022-10-23T17:16:51.530Z,99.90
2022-10-23T17:21:56.469Z,99.90
2022-10-23T17:26:59.745Z,99.90
2022-10-23T17:32:02.982Z,99.90
2022-10-23T17:37:05.996Z,99.90
2022-10-23T17:42:09.178Z,99.90
2022-10-23T17:47:12.100Z,99.90
2022-10-23T17:52:15.309Z,99.90
2022-10-23T17:57:18.154Z,99.90
2022-10-23T18:02:21.272Z,99.90
2022-10-23T18:07:26.025Z,99.90
2022-10-23T18:12:29.737Z,99.90
2022-10-23T18:17:33.098Z,99.90
2022-10-23T18:22:36.319Z,99.90
2022-10-23T18:27:41.694Z,99.90
2022-10-23T18:32:44.683Z,99.90
2022-10-23T18:37:48.320Z,99.90
2022-10-23T18:42:51.061Z,99.90
2022-10-23T18:47:53.820Z,99.90
2022-10-23T18:52:57.490Z,99.90
2022-10-23T18:58:00.253Z,99.90
2022-10-23T19:03:03.121Z,99.90
2022-10-23T19:08:06.489Z,99.90
2022-10-23T19:13:09.352Z,99.90
2022-10-23T19:18:12.129Z,99.90
2022-10-23T19:23:15.990Z,99.90
2022-10-23T19:28:18.829Z,99.90
2022-10-23T19:33:21.651Z,99.90
2022-10-23T19:38:24.457Z,99.90
2022-10-23T19:43:27.760Z,99.90
2022-10-23T19:48:31.061Z,99.90
2022-10-23T19:53:34.469Z,99.90
2022-10-23T19:58:38.824Z,99.90
2022-10-23T20:03:43.269Z,99.90
2022-10-23T20:08:46.580Z,99.90
2022-10-23T20:13:50.354Z,99.90
2022-10-23T20:18:53.259Z,99.90
2022-10-23T20:23:58.012Z,99.90
2022-10-23T20:29:01.019Z,99.90
2022-10-23T20:34:03.884Z,99.90
2022-10-23T20:39:09.029Z,99.90
2022-10-23T20:44:14.778Z,99.90
2022-10-23T20:49:18.201Z,99.90
2022-10-23T20:54:21.879Z,99.90
2022-10-23T20:59:24.972Z,99.90
2022-10-23T21:04:29.683Z,99.90
2022-10-23T21:09:32.432Z,99.90
2022-10-23T21:14:36.040Z,99.90
2022-10-23T21:19:39.789Z,99.90
2022-10-23T21:24:42.651Z,99.90
2022-10-23T21:29:45.459Z,99.90
2022-10-23T21:34:48.361Z,99.90
2022-10-23T21:39:51.151Z,99.90
2022-10-23T21:44:54.005Z,99.90
2022-10-23T21:49:56.774Z,99.90
2022-10-23T21:54:59.794Z,99.90
2022-10-23T22:00:02.615Z,99.90
2022-10-23T22:05:15.349Z,99.90
2022-10-23T22:10:18.121Z,99.90
2022-10-23T22:15:20.901Z,99.90
2022-10-23T22:20:23.676Z,99.90
2022-10-23T22:25:26.465Z,99.90
2022-10-23T22:30:29.383Z,99.90
2022-10-23T22:35:32.078Z,99.90
2022-10-23T22:40:38.467Z,99.90
2022-10-23T22:45:42.961Z,99.90
2022-10-23T22:50:46.968Z,99.90
2022-10-23T22:55:49.642Z,99.90
2022-10-23T23:01:01.159Z,99.90
2022-10-23T23:06:05.924Z,99.90
2022-10-23T23:11:11.357Z,99.90
2022-10-23T23:16:28.976Z,99.90
2022-10-23T23:21:32.228Z,99.90
2022-10-23T23:26:34.902Z,99.90
2022-10-23T23:31:37.709Z,99.90
2022-10-23T23:36:41.078Z,99.90
2022-10-23T23:41:43.659Z,99.90
2022-10-23T23:46:46.322Z,99.90
2022-10-23T23:51:49.028Z,99.90
2022-10-23T23:56:51.789Z,99.90
